sensor_id;sensor_type;location;lat;lon;timestamp;pressure;altitude;pressure_sealevel;temperature;humidity
73429;BME280;61643;49.564;17.412;2022-07-30T00:01:11;98043.97;;;18.00;79.46
73429;BME280;61643;49.564;17.412;2022-07-30T00:03:37;98038.69;;;17.81;80.03
73429;BME280;61643;49.564;17.412;2022-07-30T00:06:02;98045.94;;;17.86;79.98
73429;BME280;61643;49.564;17.412;2022-07-30T00:08:28;98047.84;;;17.85;79.92
73429;BME280;61643;49.564;17.412;2022-07-30T00:10:53;98049.03;;;17.57;81.91
73429;BME280;61643;49.564;17.412;2022-07-30T00:13:19;98036.44;;;17.61;81.88
73429;BME280;61643;49.564;17.412;2022-07-30T00:15:44;98034.88;;;17.55;82.01
73429;BME280;61643;49.564;17.412;2022-07-30T00:18:10;98028.56;;;17.59;81.25
73429;BME280;61643;49.564;17.412;2022-07-30T00:20:35;98036.13;;;17.62;81.10
73429;BME280;61643;49.564;17.412;2022-07-30T00:23:02;98030.47;;;17.59;81.26
73429;BME280;61643;49.564;17.412;2022-07-30T00:25:28;98024.75;;;17.47;81.91
73429;BME280;61643;49.564;17.412;2022-07-30T00:27:54;98023.53;;;17.53;81.40
73429;BME280;61643;49.564;17.412;2022-07-30T00:30:19;98015.00;;;17.18;83.40
73429;BME280;61643;49.564;17.412;2022-07-30T00:32:44;98008.75;;;17.32;82.91
73429;BME280;61643;49.564;17.412;2022-07-30T00:35:10;98009.63;;;17.41;82.56
73429;BME280;61643;49.564;17.412;2022-07-30T00:37:35;98001.16;;;17.42;81.92
73429;BME280;61643;49.564;17.412;2022-07-30T00:40:01;97997.34;;;17.30;82.96
73429;BME280;61643;49.564;17.412;2022-07-30T00:42:43;97999.88;;;17.26;82.99
73429;BME280;61643;49.564;17.412;2022-07-30T00:45:09;98002.69;;;17.35;83.07
73429;BME280;61643;49.564;17.412;2022-07-30T00:47:35;97995.13;;;17.45;82.46
73429;BME280;61643;49.564;17.412;2022-07-30T00:50:01;97993.50;;;17.58;82.13
73429;BME280;61643;49.564;17.412;2022-07-30T00:52:30;98001.72;;;17.66;82.09
73429;BME280;61643;49.564;17.412;2022-07-30T00:54:56;97996.38;;;17.75;81.99
73429;BME280;61643;49.564;17.412;2022-07-30T00:57:22;97998.91;;;17.72;82.17
73429;BME280;61643;49.564;17.412;2022-07-30T00:59:47;97985.59;;;17.70;82.67
73429;BME280;61643;49.564;17.412;2022-07-30T01:02:12;97990.66;;;17.63;82.75
73429;BME280;61643;49.564;17.412;2022-07-30T01:04:38;97988.19;;;17.75;82.71
73429;BME280;61643;49.564;17.412;2022-07-30T01:07:03;97989.56;;;17.86;81.68
73429;BME280;61643;49.564;17.412;2022-07-30T01:09:28;97983.97;;;17.91;82.44
73429;BME280;61643;49.564;17.412;2022-07-30T01:11:54;97992.28;;;17.86;82.55
73429;BME280;61643;49.564;17.412;2022-07-30T01:14:20;97988.69;;;17.77;82.88
73429;BME280;61643;49.564;17.412;2022-07-30T01:16:46;97996.22;;;17.80;82.95
73429;BME280;61643;49.564;17.412;2022-07-30T01:19:24;97992.75;;;17.66;83.81
73429;BME280;61643;49.564;17.412;2022-07-30T01:25:05;97988.38;;;17.79;83.29
73429;BME280;61643;49.564;17.412;2022-07-30T01:27:35;97984.41;;;17.85;82.90
73429;BME280;61643;49.564;17.412;2022-07-30T01:30:04;97982.69;;;17.89;82.58
73429;BME280;61643;49.564;17.412;2022-07-30T01:32:30;97982.22;;;17.87;83.19
73429;BME280;61643;49.564;17.412;2022-07-30T01:34:58;97974.34;;;17.85;83.03
73429;BME280;61643;49.564;17.412;2022-07-30T01:37:24;97971.81;;;17.89;82.52
73429;BME280;61643;49.564;17.412;2022-07-30T01:39:51;97966.97;;;17.86;82.82
73429;BME280;61643;49.564;17.412;2022-07-30T01:42:18;97971.91;;;17.84;83.26
73429;BME280;61643;49.564;17.412;2022-07-30T01:44:46;97969.97;;;17.76;84.02
73429;BME280;61643;49.564;17.412;2022-07-30T01:47:13;97965.06;;;17.86;83.09
73429;BME280;61643;49.564;17.412;2022-07-30T01:49:39;97970.56;;;17.95;82.67
73429;BME280;61643;49.564;17.412;2022-07-30T01:52:07;97977.50;;;18.01;82.14
73429;BME280;61643;49.564;17.412;2022-07-30T01:54:34;97964.25;;;18.08;82.00
73429;BME280;61643;49.564;17.412;2022-07-30T01:57:01;97969.50;;;18.04;82.69
73429;BME280;61643;49.564;17.412;2022-07-30T01:59:29;97972.47;;;17.94;82.89
73429;BME280;61643;49.564;17.412;2022-07-30T02:01:55;97979.72;;;17.99;82.60
73429;BME280;61643;49.564;17.412;2022-07-30T02:04:26;97987.59;;;18.00;82.49
73429;BME280;61643;49.564;17.412;2022-07-30T02:07:00;97988.03;;;17.94;82.98
73429;BME280;61643;49.564;17.412;2022-07-30T02:09:43;97992.31;;;17.73;84.09
73429;BME280;61643;49.564;17.412;2022-07-30T02:12:13;97982.44;;;17.77;83.90
73429;BME280;61643;49.564;17.412;2022-07-30T02:18:14;97989.22;;;17.65;84.28
73429;BME280;61643;49.564;17.412;2022-07-30T02:20:44;97983.97;;;17.69;84.10
73429;BME280;61643;49.564;17.412;2022-07-30T02:23:14;97988.13;;;17.66;84.28
73429;BME280;61643;49.564;17.412;2022-07-30T02:25:43;97988.13;;;17.53;84.84
73429;BME280;61643;49.564;17.412;2022-07-30T02:28:13;97975.38;;;17.40;85.76
73429;BME280;61643;49.564;17.412;2022-07-30T02:30:59;97975.50;;;17.35;85.80
73429;BME280;61643;49.564;17.412;2022-07-30T02:33:29;97973.25;;;17.50;85.00
73429;BME280;61643;49.564;17.412;2022-07-30T02:35:57;97966.59;;;17.56;84.29
73429;BME280;61643;49.564;17.412;2022-07-30T02:38:23;97964.56;;;17.48;84.84
73429;BME280;61643;49.564;17.412;2022-07-30T02:40:53;97974.44;;;17.44;85.61
73429;BME280;61643;49.564;17.412;2022-07-30T02:43:20;97975.63;;;17.52;84.66
73429;BME280;61643;49.564;17.412;2022-07-30T02:45:49;97988.31;;;17.70;84.21
73429;BME280;61643;49.564;17.412;2022-07-30T02:48:15;97990.22;;;17.69;85.05
73429;BME280;61643;49.564;17.412;2022-07-30T02:50:41;97981.88;;;17.66;85.19
73429;BME280;61643;49.564;17.412;2022-07-30T02:53:10;97992.41;;;17.81;84.00
73429;BME280;61643;49.564;17.412;2022-07-30T02:55:37;97996.94;;;17.86;83.80
73429;BME280;61643;49.564;17.412;2022-07-30T02:58:04;97995.81;;;17.87;83.47
73429;BME280;61643;49.564;17.412;2022-07-30T03:00:31;97997.75;;;17.86;83.44
73429;BME280;61643;49.564;17.412;2022-07-30T03:02:58;97991.84;;;17.93;83.04
73429;BME280;61643;49.564;17.412;2022-07-30T03:05:25;97983.19;;;17.91;83.44
73429;BME280;61643;49.564;17.412;2022-07-30T03:07:52;97988.50;;;17.96;83.47
73429;BME280;61643;49.564;17.412;2022-07-30T03:10:19;97987.69;;;17.95;83.36
73429;BME280;61643;49.564;17.412;2022-07-30T03:12:45;97987.22;;;17.93;83.98
73429;BME280;61643;49.564;17.412;2022-07-30T03:15:11;97978.72;;;17.73;84.90
73429;BME280;61643;49.564;17.412;2022-07-30T03:17:39;97978.13;;;17.76;84.65
73429;BME280;61643;49.564;17.412;2022-07-30T03:20:09;97981.84;;;17.80;84.43
73429;BME280;61643;49.564;17.412;2022-07-30T03:22:40;97984.22;;;17.81;84.17
73429;BME280;61643;49.564;17.412;2022-07-30T03:25:06;97977.47;;;17.56;86.22
73429;BME280;61643;49.564;17.412;2022-07-30T03:27:35;97978.16;;;17.48;86.30
73429;BME280;61643;49.564;17.412;2022-07-30T03:30:05;97972.53;;;17.45;86.79
73429;BME280;61643;49.564;17.412;2022-07-30T03:32:31;97976.25;;;17.49;86.61
73429;BME280;61643;49.564;17.412;2022-07-30T03:34:58;97972.63;;;17.53;86.29
73429;BME280;61643;49.564;17.412;2022-07-30T03:37:25;97978.78;;;17.59;85.88
73429;BME280;61643;49.564;17.412;2022-07-30T03:39:52;97980.88;;;17.62;85.54
73429;BME280;61643;49.564;17.412;2022-07-30T03:42:19;97984.09;;;17.64;85.88
73429;BME280;61643;49.564;17.412;2022-07-30T03:44:45;97982.41;;;17.54;86.53
73429;BME280;61643;49.564;17.412;2022-07-30T03:47:12;97984.22;;;17.59;86.40
73429;BME280;61643;49.564;17.412;2022-07-30T03:49:38;97985.03;;;17.59;85.76
73429;BME280;61643;49.564;17.412;2022-07-30T03:52:04;97991.16;;;17.65;86.43
73429;BME280;61643;49.564;17.412;2022-07-30T03:54:31;97996.84;;;17.77;85.72
73429;BME280;61643;49.564;17.412;2022-07-30T03:57:01;97996.84;;;17.77;85.87
73429;BME280;61643;49.564;17.412;2022-07-30T03:59:28;98001.50;;;17.77;86.31
73429;BME280;61643;49.564;17.412;2022-07-30T04:01:53;98002.44;;;17.72;87.54
73429;BME280;61643;49.564;17.412;2022-07-30T04:04:23;98000.31;;;17.69;87.25
73429;BME280;61643;49.564;17.412;2022-07-30T04:06:49;97986.44;;;17.57;87.93
73429;BME280;61643;49.564;17.412;2022-07-30T04:09:14;97986.03;;;17.63;86.96
73429;BME280;61643;49.564;17.412;2022-07-30T04:11:39;97982.50;;;17.63;86.65
73429;BME280;61643;49.564;17.412;2022-07-30T04:14:05;97980.38;;;17.60;86.67
73429;BME280;61643;49.564;17.412;2022-07-30T04:16:38;97981.50;;;17.59;87.36
73429;BME280;61643;49.564;17.412;2022-07-30T04:19:11;97980.16;;;17.70;86.74
73429;BME280;61643;49.564;17.412;2022-07-30T04:21:40;97976.56;;;17.61;87.38
73429;BME280;61643;49.564;17.412;2022-07-30T04:24:07;97979.53;;;17.73;86.93
73429;BME280;61643;49.564;17.412;2022-07-30T04:26:35;97985.41;;;17.89;86.12
73429;BME280;61643;49.564;17.412;2022-07-30T04:29:02;97977.16;;;18.02;85.50
73429;BME280;61643;49.564;17.412;2022-07-30T04:31:30;97966.00;;;18.12;87.01
73429;BME280;61643;49.564;17.412;2022-07-30T04:34:00;97963.97;;;18.18;86.03
73429;BME280;61643;49.564;17.412;2022-07-30T04:36:25;97977.13;;;18.47;84.97
73429;BME280;61643;49.564;17.412;2022-07-30T04:38:50;97978.22;;;18.46;85.05
73429;BME280;61643;49.564;17.412;2022-07-30T04:41:16;97977.97;;;18.25;85.76
73429;BME280;61643;49.564;17.412;2022-07-30T04:43:41;97978.19;;;18.37;85.13
73429;BME280;61643;49.564;17.412;2022-07-30T04:46:06;97962.81;;;18.41;84.66
73429;BME280;61643;49.564;17.412;2022-07-30T04:48:32;97962.84;;;18.50;83.46
73429;BME280;61643;49.564;17.412;2022-07-30T04:50:59;97960.09;;;18.41;84.55
73429;BME280;61643;49.564;17.412;2022-07-30T04:53:27;97963.09;;;18.31;84.18
73429;BME280;61643;49.564;17.412;2022-07-30T04:55:53;97958.53;;;18.18;84.86
73429;BME280;61643;49.564;17.412;2022-07-30T04:58:19;97968.63;;;18.17;84.93
73429;BME280;61643;49.564;17.412;2022-07-30T05:00:47;97967.53;;;18.27;84.38
73429;BME280;61643;49.564;17.412;2022-07-30T05:03:14;97958.59;;;18.27;84.65
73429;BME280;61643;49.564;17.412;2022-07-30T05:05:41;97951.16;;;18.18;84.90
73429;BME280;61643;49.564;17.412;2022-07-30T05:08:06;97953.03;;;18.09;85.24
73429;BME280;61643;49.564;17.412;2022-07-30T05:10:33;97952.91;;;18.14;85.35
73429;BME280;61643;49.564;17.412;2022-07-30T05:12:58;97952.16;;;18.23;85.22
73429;BME280;61643;49.564;17.412;2022-07-30T05:15:24;97945.44;;;18.29;84.76
73429;BME280;61643;49.564;17.412;2022-07-30T05:17:49;97945.91;;;18.22;85.45
73429;BME280;61643;49.564;17.412;2022-07-30T05:20:15;97939.47;;;18.18;86.24
73429;BME280;61643;49.564;17.412;2022-07-30T05:22:40;97941.75;;;18.25;85.97
73429;BME280;61643;49.564;17.412;2022-07-30T05:25:06;97940.19;;;18.32;86.03
73429;BME280;61643;49.564;17.412;2022-07-30T05:27:31;97938.28;;;18.41;85.74
73429;BME280;61643;49.564;17.412;2022-07-30T05:29:57;97943.13;;;18.44;84.90
73429;BME280;61643;49.564;17.412;2022-07-30T05:32:22;97934.63;;;18.46;84.65
73429;BME280;61643;49.564;17.412;2022-07-30T05:34:47;97937.50;;;18.41;84.70
73429;BME280;61643;49.564;17.412;2022-07-30T05:37:13;97947.41;;;18.37;84.91
73429;BME280;61643;49.564;17.412;2022-07-30T05:39:38;97932.69;;;18.46;83.75
73429;BME280;61643;49.564;17.412;2022-07-30T05:42:04;97955.56;;;18.59;83.71
73429;BME280;61643;49.564;17.412;2022-07-30T05:44:29;97945.78;;;18.66;84.37
73429;BME280;61643;49.564;17.412;2022-07-30T05:46:54;97955.13;;;18.74;84.92
73429;BME280;61643;49.564;17.412;2022-07-30T05:49:20;97951.75;;;18.68;85.18
73429;BME280;61643;49.564;17.412;2022-07-30T05:51:45;97957.53;;;18.76;84.22
73429;BME280;61643;49.564;17.412;2022-07-30T05:54:11;97958.69;;;18.83;84.08
73429;BME280;61643;49.564;17.412;2022-07-30T05:56:36;97964.31;;;18.87;83.14
73429;BME280;61643;49.564;17.412;2022-07-30T05:59:02;97961.75;;;18.90;83.20
73429;BME280;61643;49.564;17.412;2022-07-30T06:01:27;97961.75;;;18.90;83.19
73429;BME280;61643;49.564;17.412;2022-07-30T06:03:53;97969.81;;;18.95;82.86
73429;BME280;61643;49.564;17.412;2022-07-30T06:06:18;97968.03;;;18.99;82.61
73429;BME280;61643;49.564;17.412;2022-07-30T06:08:49;97974.78;;;19.02;83.06
73429;BME280;61643;49.564;17.412;2022-07-30T06:11:14;97975.78;;;19.06;82.68
73429;BME280;61643;49.564;17.412;2022-07-30T06:13:40;97978.16;;;19.07;82.66
73429;BME280;61643;49.564;17.412;2022-07-30T06:16:05;97985.38;;;19.03;82.83
73429;BME280;61643;49.564;17.412;2022-07-30T06:18:31;97985.38;;;19.03;82.28
73429;BME280;61643;49.564;17.412;2022-07-30T06:20:56;97993.38;;;18.91;82.59
73429;BME280;61643;49.564;17.412;2022-07-30T06:23:22;97997.03;;;18.87;82.80
73429;BME280;61643;49.564;17.412;2022-07-30T06:25:48;98003.53;;;18.68;82.75
73429;BME280;61643;49.564;17.412;2022-07-30T06:28:15;98005.34;;;18.73;82.42
73429;BME280;61643;49.564;17.412;2022-07-30T06:30:40;97999.72;;;18.70;82.58
73429;BME280;61643;49.564;17.412;2022-07-30T06:33:06;97998.72;;;18.65;82.75
73429;BME280;61643;49.564;17.412;2022-07-30T06:35:31;98004.19;;;18.65;82.52
73429;BME280;61643;49.564;17.412;2022-07-30T06:37:58;97999.66;;;18.61;82.85
73429;BME280;61643;49.564;17.412;2022-07-30T06:40:24;98007.84;;;18.61;82.66
73429;BME280;61643;49.564;17.412;2022-07-30T06:42:49;98008.00;;;18.64;83.32
73429;BME280;61643;49.564;17.412;2022-07-30T06:45:14;97993.91;;;18.62;83.60
73429;BME280;61643;49.564;17.412;2022-07-30T06:47:40;97998.84;;;18.60;83.46
73429;BME280;61643;49.564;17.412;2022-07-30T06:50:06;97994.22;;;18.61;83.88
73429;BME280;61643;49.564;17.412;2022-07-30T06:52:31;98006.22;;;18.60;83.55
73429;BME280;61643;49.564;17.412;2022-07-30T06:54:57;97993.22;;;18.57;83.70
73429;BME280;61643;49.564;17.412;2022-07-30T06:57:22;97993.22;;;18.57;83.69
73429;BME280;61643;49.564;17.412;2022-07-30T06:59:47;97993.56;;;18.55;84.14
73429;BME280;61643;49.564;17.412;2022-07-30T07:02:13;97996.31;;;18.64;83.86
73429;BME280;61643;49.564;17.412;2022-07-30T07:04:38;97997.69;;;18.53;84.75
73429;BME280;61643;49.564;17.412;2022-07-30T07:07:04;98004.81;;;18.40;84.55
73429;BME280;61643;49.564;17.412;2022-07-30T07:09:29;97993.91;;;18.40;84.47
73429;BME280;61643;49.564;17.412;2022-07-30T07:11:55;97995.16;;;18.34;85.22
73429;BME280;61643;49.564;17.412;2022-07-30T07:14:20;98004.91;;;18.27;85.75
73429;BME280;61643;49.564;17.412;2022-07-30T07:16:47;98000.94;;;18.33;85.70
73429;BME280;61643;49.564;17.412;2022-07-30T07:19:13;97995.78;;;18.31;85.80
73429;BME280;61643;49.564;17.412;2022-07-30T07:21:38;97984.53;;;18.24;86.26
73429;BME280;61643;49.564;17.412;2022-07-30T07:24:04;97990.47;;;18.26;85.55
73429;BME280;61643;49.564;17.412;2022-07-30T07:26:30;97997.78;;;18.17;85.59
73429;BME280;61643;49.564;17.412;2022-07-30T07:28:55;97993.75;;;18.14;85.93
73429;BME280;61643;49.564;17.412;2022-07-30T07:31:21;97996.13;;;18.07;86.26
73429;BME280;61643;49.564;17.412;2022-07-30T07:33:47;98000.94;;;18.10;86.62
73429;BME280;61643;49.564;17.412;2022-07-30T07:36:13;97993.41;;;18.07;86.03
73429;BME280;61643;49.564;17.412;2022-07-30T07:38:38;97984.59;;;18.10;86.17
73429;BME280;61643;49.564;17.412;2022-07-30T07:41:03;97986.25;;;18.20;86.04
73429;BME280;61643;49.564;17.412;2022-07-30T07:43:30;97980.94;;;18.15;86.54
73429;BME280;61643;49.564;17.412;2022-07-30T07:45:55;97989.59;;;18.17;86.11
73429;BME280;61643;49.564;17.412;2022-07-30T07:48:21;97990.91;;;18.19;86.66
73429;BME280;61643;49.564;17.412;2022-07-30T07:50:46;97987.56;;;18.23;86.52
73429;BME280;61643;49.564;17.412;2022-07-30T07:53:12;97991.59;;;18.25;86.28
73429;BME280;61643;49.564;17.412;2022-07-30T07:55:37;97997.50;;;18.27;86.93
73429;BME280;61643;49.564;17.412;2022-07-30T07:58:03;97992.88;;;18.28;86.62
73429;BME280;61643;49.564;17.412;2022-07-30T08:00:28;97998.84;;;18.30;87.57
73429;BME280;61643;49.564;17.412;2022-07-30T08:02:53;97995.78;;;18.31;87.19
73429;BME280;61643;49.564;17.412;2022-07-30T08:05:19;98000.88;;;18.24;87.59
73429;BME280;61643;49.564;17.412;2022-07-30T08:07:44;97996.84;;;18.22;88.15
73429;BME280;61643;49.564;17.412;2022-07-30T08:10:10;97993.63;;;18.19;88.58
73429;BME280;61643;49.564;17.412;2022-07-30T08:12:39;97989.41;;;18.13;88.38
73429;BME280;61643;49.564;17.412;2022-07-30T08:15:05;97989.69;;;18.03;89.49
73429;BME280;61643;49.564;17.412;2022-07-30T08:17:31;97987.88;;;17.99;89.56
73429;BME280;61643;49.564;17.412;2022-07-30T08:19:59;97991.41;;;17.99;89.07
73429;BME280;61643;49.564;17.412;2022-07-30T08:22:26;97993.09;;;17.87;90.17
73429;BME280;61643;49.564;17.412;2022-07-30T08:24:51;97986.84;;;17.86;88.99
73429;BME280;61643;49.564;17.412;2022-07-30T08:27:17;97988.50;;;17.96;89.31
73429;BME280;61643;49.564;17.412;2022-07-30T08:29:42;97995.13;;;18.03;89.32
73429;BME280;61643;49.564;17.412;2022-07-30T08:32:08;97989.25;;;18.10;89.62
73429;BME280;61643;49.564;17.412;2022-07-30T08:34:33;97996.94;;;18.08;88.47
73429;BME280;61643;49.564;17.412;2022-07-30T08:36:59;97995.94;;;18.04;89.46
73429;BME280;61643;49.564;17.412;2022-07-30T08:39:24;98005.91;;;18.08;89.35
73429;BME280;61643;49.564;17.412;2022-07-30T08:41:50;97998.97;;;18.02;88.93
73429;BME280;61643;49.564;17.412;2022-07-30T08:44:16;98005.22;;;18.03;89.33
73429;BME280;61643;49.564;17.412;2022-07-30T08:46:43;97991.66;;;17.89;88.19
73429;BME280;61643;49.564;17.412;2022-07-30T08:49:11;97990.13;;;17.97;88.44
73429;BME280;61643;49.564;17.412;2022-07-30T08:51:37;97998.09;;;17.93;89.28
73429;BME280;61643;49.564;17.412;2022-07-30T08:54:04;98003.56;;;17.93;89.39
73429;BME280;61643;49.564;17.412;2022-07-30T08:56:31;97985.53;;;17.84;89.48
73429;BME280;61643;49.564;17.412;2022-07-30T08:58:56;97995.63;;;17.83;89.87
73429;BME280;61643;49.564;17.412;2022-07-30T09:01:23;97999.56;;;17.77;90.13
73429;BME280;61643;49.564;17.412;2022-07-30T09:03:48;98001.50;;;17.77;90.05
73429;BME280;61643;49.564;17.412;2022-07-30T09:06:14;98000.38;;;17.78;90.32
73429;BME280;61643;49.564;17.412;2022-07-30T09:08:40;97999.47;;;17.82;90.12
73429;BME280;61643;49.564;17.412;2022-07-30T09:11:06;98008.94;;;17.85;89.98
73429;BME280;61643;49.564;17.412;2022-07-30T09:13:34;98016.03;;;17.72;90.76
73429;BME280;61643;49.564;17.412;2022-07-30T09:16:01;98010.97;;;17.79;90.76
73429;BME280;61643;49.564;17.412;2022-07-30T09:18:37;98005.75;;;17.91;91.05
73429;BME280;61643;49.564;17.412;2022-07-30T09:21:24;98007.75;;;17.99;90.40
73429;BME280;61643;49.564;17.412;2022-07-30T09:24:10;98006.03;;;18.03;89.68
73429;BME280;61643;49.564;17.412;2022-07-30T09:26:58;98004.59;;;18.06;89.86
73429;BME280;61643;49.564;17.412;2022-07-30T09:29:26;98005.84;;;18.00;90.48
73429;BME280;61643;49.564;17.412;2022-07-30T09:32:00;98004.41;;;18.02;90.17
73429;BME280;61643;49.564;17.412;2022-07-30T09:34:29;98003.00;;;18.05;89.94
73429;BME280;61643;49.564;17.412;2022-07-30T09:36:56;97990.31;;;18.00;90.31
73429;BME280;61643;49.564;17.412;2022-07-30T09:39:29;97998.97;;;18.02;89.86
73429;BME280;61643;49.564;17.412;2022-07-30T09:41:55;97994.31;;;18.03;91.11
73429;BME280;61643;49.564;17.412;2022-07-30T09:44:25;97992.88;;;18.05;90.61
73429;BME280;61643;49.564;17.412;2022-07-30T09:46:54;97989.69;;;18.03;91.13
73429;BME280;61643;49.564;17.412;2022-07-30T09:49:25;98003.13;;;18.00;91.22
73429;BME280;61643;49.564;17.412;2022-07-30T09:51:51;97991.94;;;18.01;90.73
73429;BME280;61643;49.564;17.412;2022-07-30T09:54:17;98000.56;;;18.03;90.74
73429;BME280;61643;49.564;17.412;2022-07-30T09:56:43;98000.28;;;18.05;91.49
73429;BME280;61643;49.564;17.412;2022-07-30T09:59:25;97997.75;;;18.08;90.60
73429;BME280;61643;49.564;17.412;2022-07-30T10:01:55;97995.50;;;18.10;90.64
73429;BME280;61643;49.564;17.412;2022-07-30T10:04:30;97994.56;;;18.15;90.08
73429;BME280;61643;49.564;17.412;2022-07-30T10:06:57;97991.88;;;18.24;90.29
73429;BME280;61643;49.564;17.412;2022-07-30T10:11:59;97986.31;;;18.29;89.88
73429;BME280;61643;49.564;17.412;2022-07-30T10:14:32;97982.16;;;18.31;89.70
73429;BME280;61643;49.564;17.412;2022-07-30T10:16:58;97998.38;;;18.36;89.79
73429;BME280;61643;49.564;17.412;2022-07-30T10:19:24;97996.94;;;18.39;89.56
73429;BME280;61643;49.564;17.412;2022-07-30T10:21:50;97987.53;;;18.45;89.98
73429;BME280;61643;49.564;17.412;2022-07-30T10:24:18;97994.16;;;18.52;89.25
73429;BME280;61643;49.564;17.412;2022-07-30T10:26:45;97993.03;;;18.53;89.35
73429;BME280;61643;49.564;17.412;2022-07-30T10:29:10;97989.06;;;18.59;89.07
73429;BME280;61643;49.564;17.412;2022-07-30T10:31:36;97994.84;;;18.66;89.23
73429;BME280;61643;49.564;17.412;2022-07-30T10:34:03;97991.84;;;18.68;88.77
73429;BME280;61643;49.564;17.412;2022-07-30T10:36:30;97993.63;;;18.73;88.80
73429;BME280;61643;49.564;17.412;2022-07-30T10:38:56;97990.09;;;18.72;88.85
73429;BME280;61643;49.564;17.412;2022-07-30T10:47:02;97998.91;;;18.69;89.36
73429;BME280;61643;49.564;17.412;2022-07-30T10:49:30;97998.56;;;18.62;88.91
73429;BME280;61643;49.564;17.412;2022-07-30T10:51:56;98000.47;;;18.61;89.44
73429;BME280;61643;49.564;17.412;2022-07-30T10:57:16;97994.50;;;18.59;89.74
73429;BME280;61643;49.564;17.412;2022-07-30T11:02:17;97993.72;;;18.59;90.01
73429;BME280;61643;49.564;17.412;2022-07-30T11:04:43;97991.00;;;18.59;89.40
73429;BME280;61643;49.564;17.412;2022-07-30T11:09:55;97991.34;;;18.66;89.20
73429;BME280;61643;49.564;17.412;2022-07-30T11:15:06;97986.06;;;18.70;89.01
73429;BME280;61643;49.564;17.412;2022-07-30T11:18:08;97987.84;;;18.74;88.98
73429;BME280;61643;49.564;17.412;2022-07-30T11:20:35;97983.06;;;18.80;88.29
73429;BME280;61643;49.564;17.412;2022-07-30T11:25:44;97978.59;;;18.92;88.53
73429;BME280;61643;49.564;17.412;2022-07-30T11:31:02;97983.78;;;19.02;88.68
73429;BME280;61643;49.564;17.412;2022-07-30T11:33:29;97974.47;;;19.03;88.73
73429;BME280;61643;49.564;17.412;2022-07-30T11:36:09;97979.91;;;19.03;87.88
73429;BME280;61643;49.564;17.412;2022-07-30T11:38:56;97971.41;;;18.96;88.36
73429;BME280;61643;49.564;17.412;2022-07-30T11:41:23;97978.78;;;18.96;88.52
73429;BME280;61643;49.564;17.412;2022-07-30T11:44:24;97974.13;;;18.96;88.32
73429;BME280;61643;49.564;17.412;2022-07-30T11:46:49;97972.38;;;19.00;88.25
73429;BME280;61643;49.564;17.412;2022-07-30T11:49:17;97970.63;;;19.04;88.64
73429;BME280;61643;49.564;17.412;2022-07-30T11:51:44;97967.25;;;19.07;88.46
73429;BME280;61643;49.564;17.412;2022-07-30T11:54:10;97963.06;;;19.10;88.13
73429;BME280;61643;49.564;17.412;2022-07-30T11:56:47;97969.34;;;19.10;88.83
73429;BME280;61643;49.564;17.412;2022-07-30T11:59:12;97965.63;;;19.06;89.52
73429;BME280;61643;49.564;17.412;2022-07-30T12:01:37;97953.78;;;19.02;89.10
73429;BME280;61643;49.564;17.412;2022-07-30T12:04:04;97966.78;;;19.05;89.07
73429;BME280;61643;49.564;17.412;2022-07-30T12:06:30;97966.59;;;19.02;88.77
73429;BME280;61643;49.564;17.412;2022-07-30T12:08:57;97958.72;;;19.00;89.04
73429;BME280;61643;49.564;17.412;2022-07-30T12:11:22;97961.97;;;19.02;89.45
73429;BME280;61643;49.564;17.412;2022-07-30T12:13:57;97954.56;;;18.94;89.80
73429;BME280;61643;49.564;17.412;2022-07-30T12:16:25;97968.66;;;18.96;90.12
73429;BME280;61643;49.564;17.412;2022-07-30T12:18:51;97966.28;;;18.95;90.11
73429;BME280;61643;49.564;17.412;2022-07-30T12:21:17;97956.00;;;18.92;90.36
73429;BME280;61643;49.564;17.412;2022-07-30T12:26:24;97956.31;;;18.90;91.19
73429;BME280;61643;49.564;17.412;2022-07-30T12:28:50;97959.19;;;18.94;91.02
73429;BME280;61643;49.564;17.412;2022-07-30T12:31:16;97956.78;;;18.92;91.16
73429;BME280;61643;49.564;17.412;2022-07-30T12:33:41;97952.31;;;18.96;91.27
73429;BME280;61643;49.564;17.412;2022-07-30T12:36:07;97952.16;;;19.01;90.92
73429;BME280;61643;49.564;17.412;2022-07-30T12:38:45;97952.00;;;19.06;91.50
73429;BME280;61643;49.564;17.412;2022-07-30T12:41:13;97951.84;;;19.11;91.14
73429;BME280;61643;49.564;17.412;2022-07-30T12:43:57;97946.56;;;19.15;91.00
73429;BME280;61643;49.564;17.412;2022-07-30T12:46:24;97949.63;;;19.22;90.35
73429;BME280;61643;49.564;17.412;2022-07-30T12:49:02;97945.78;;;19.23;90.40
73429;BME280;61643;49.564;17.412;2022-07-30T12:51:35;97941.94;;;19.24;90.93
73429;BME280;61643;49.564;17.412;2022-07-30T12:54:16;97942.88;;;19.20;90.72
73429;BME280;61643;49.564;17.412;2022-07-30T12:57:00;97940.00;;;19.25;89.88
73429;BME280;61643;49.564;17.412;2022-07-30T12:59:27;97936.78;;;19.23;90.09
73429;BME280;61643;49.564;17.412;2022-07-30T13:01:53;97937.75;;;19.18;90.16
73429;BME280;61643;49.564;17.412;2022-07-30T13:04:19;97942.09;;;19.19;89.73
73429;BME280;61643;49.564;17.412;2022-07-30T13:07:11;97943.69;;;19.29;90.50
73429;BME280;61643;49.564;17.412;2022-07-30T13:09:38;97938.56;;;19.36;89.70
73429;BME280;61643;49.564;17.412;2022-07-30T13:12:11;97948.06;;;19.47;89.10
73429;BME280;61643;49.564;17.412;2022-07-30T13:14:37;97940.03;;;19.50;88.48
73429;BME280;61643;49.564;17.412;2022-07-30T13:17:02;97944.25;;;19.56;88.75
73429;BME280;61643;49.564;17.412;2022-07-30T13:19:28;97938.63;;;19.53;89.52
73429;BME280;61643;49.564;17.412;2022-07-30T13:21:53;97932.50;;;19.56;89.47
73429;BME280;61643;49.564;17.412;2022-07-30T13:24:19;97938.28;;;19.63;89.15
73429;BME280;61643;49.564;17.412;2022-07-30T13:26:45;97935.38;;;19.68;88.39